sensor_id;sensor_type;location;lat;lon;timestamp;P1;durP1;ratioP1;P2;durP2;ratioP2
72085;SDS011;64750;52.134;5.424;2023-12-04T00:02:23;13.13;;;6.93;;
72085;SDS011;64750;52.134;5.424;2023-12-04T00:04:50;12.98;;;7.95;;
72085;SDS011;64750;52.134;5.424;2023-12-04T00:07:17;9.60;;;7.13;;
72085;SDS011;64750;52.134;5.424;2023-12-04T00:09:43;12.30;;;7.70;;
72085;SDS011;64750;52.134;5.424;2023-12-04T00:12:09;14.18;;;8.23;;
72085;SDS011;64750;52.134;5.424;2023-12-04T00:14:36;10.43;;;7.38;;
72085;SDS011;64750;52.134;5.424;2023-12-04T00:17:03;12.65;;;8.20;;
72085;SDS011;64750;52.134;5.424;2023-12-04T00:19:29;11.38;;;8.18;;
72085;SDS011;64750;52.134;5.424;2023-12-04T00:21:56;12.87;;;8.03;;
72085;SDS011;64750;52.134;5.424;2023-12-04T00:24:23;12.32;;;8.20;;
72085;SDS011;64750;52.134;5.424;2023-12-04T00:26:49;12.77;;;8.35;;
72085;SDS011;64750;52.134;5.424;2023-12-04T00:29:15;12.70;;;8.18;;
72085;SDS011;64750;52.134;5.424;2023-12-04T00:31:42;10.15;;;7.47;;
72085;SDS011;64750;52.134;5.424;2023-12-04T00:34:08;14.60;;;8.07;;
72085;SDS011;64750;52.134;5.424;2023-12-04T00:36:35;14.93;;;8.07;;
72085;SDS011;64750;52.134;5.424;2023-12-04T00:39:02;14.20;;;8.20;;
72085;SDS011;64750;52.134;5.424;2023-12-04T00:41:30;14.25;;;8.48;;
72085;SDS011;64750;52.134;5.424;2023-12-04T00:43:57;13.20;;;8.25;;
72085;SDS011;64750;52.134;5.424;2023-12-04T00:46:23;10.77;;;7.80;;
72085;SDS011;64750;52.134;5.424;2023-12-04T00:48:50;15.48;;;8.55;;
72085;SDS011;64750;52.134;5.424;2023-12-04T00:51:17;15.60;;;8.65;;
72085;SDS011;64750;52.134;5.424;2023-12-04T00:53:43;14.32;;;8.77;;
72085;SDS011;64750;52.134;5.424;2023-12-04T00:56:09;15.50;;;8.38;;
72085;SDS011;64750;52.134;5.424;2023-12-04T00:58:36;10.70;;;7.37;;
72085;SDS011;64750;52.134;5.424;2023-12-04T01:01:03;12.73;;;7.95;;
72085;SDS011;64750;52.134;5.424;2023-12-04T01:03:30;13.20;;;8.30;;
72085;SDS011;64750;52.134;5.424;2023-12-04T01:05:59;13.93;;;8.73;;
72085;SDS011;64750;52.134;5.424;2023-12-04T01:08:26;15.68;;;8.43;;
72085;SDS011;64750;52.134;5.424;2023-12-04T01:10:52;14.30;;;7.97;;
72085;SDS011;64750;52.134;5.424;2023-12-04T01:13:19;13.60;;;9.27;;
72085;SDS011;64750;52.134;5.424;2023-12-04T01:15:45;16.13;;;8.88;;
72085;SDS011;64750;52.134;5.424;2023-12-04T01:18:13;14.32;;;9.32;;
72085;SDS011;64750;52.134;5.424;2023-12-04T01:20:39;15.70;;;9.20;;
72085;SDS011;64750;52.134;5.424;2023-12-04T01:23:06;15.43;;;8.47;;
72085;SDS011;64750;52.134;5.424;2023-12-04T01:25:33;13.57;;;8.60;;
72085;SDS011;64750;52.134;5.424;2023-12-04T01:27:59;15.77;;;8.38;;
72085;SDS011;64750;52.134;5.424;2023-12-04T01:30:26;14.77;;;8.93;;
72085;SDS011;64750;52.134;5.424;2023-12-04T01:32:52;14.10;;;9.40;;
72085;SDS011;64750;52.134;5.424;2023-12-04T01:35:19;15.27;;;8.87;;
72085;SDS011;64750;52.134;5.424;2023-12-04T01:37:45;13.48;;;9.00;;
72085;SDS011;64750;52.134;5.424;2023-12-04T01:40:12;14.85;;;8.52;;
72085;SDS011;64750;52.134;5.424;2023-12-04T01:42:38;16.83;;;10.00;;
72085;SDS011;64750;52.134;5.424;2023-12-04T01:45:05;14.77;;;9.35;;
72085;SDS011;64750;52.134;5.424;2023-12-04T01:47:32;15.63;;;9.63;;
72085;SDS011;64750;52.134;5.424;2023-12-04T01:49:59;15.02;;;9.25;;
72085;SDS011;64750;52.134;5.424;2023-12-04T01:52:25;17.80;;;9.57;;
72085;SDS011;64750;52.134;5.424;2023-12-04T01:54:52;12.30;;;8.90;;
72085;SDS011;64750;52.134;5.424;2023-12-04T01:57:19;16.50;;;9.43;;
72085;SDS011;64750;52.134;5.424;2023-12-04T01:59:46;15.13;;;9.13;;
72085;SDS011;64750;52.134;5.424;2023-12-04T02:02:13;16.17;;;8.70;;
72085;SDS011;64750;52.134;5.424;2023-12-04T02:04:40;18.05;;;9.32;;
72085;SDS011;64750;52.134;5.424;2023-12-04T02:07:07;15.73;;;8.70;;
72085;SDS011;64750;52.134;5.424;2023-12-04T02:09:36;12.13;;;8.68;;
72085;SDS011;64750;52.134;5.424;2023-12-04T02:12:03;16.87;;;9.07;;
72085;SDS011;64750;52.134;5.424;2023-12-04T02:14:31;15.30;;;9.75;;
72085;SDS011;64750;52.134;5.424;2023-12-04T02:16:57;14.68;;;9.23;;
72085;SDS011;64750;52.134;5.424;2023-12-04T02:19:26;15.48;;;9.35;;
72085;SDS011;64750;52.134;5.424;2023-12-04T02:21:53;16.05;;;10.00;;
72085;SDS011;64750;52.134;5.424;2023-12-04T02:24:19;15.73;;;8.70;;
72085;SDS011;64750;52.134;5.424;2023-12-04T02:26:53;14.63;;;8.98;;
72085;SDS011;64750;52.134;5.424;2023-12-04T02:29:29;14.02;;;9.05;;
72085;SDS011;64750;52.134;5.424;2023-12-04T02:31:58;15.82;;;9.25;;
72085;SDS011;64750;52.134;5.424;2023-12-04T02:34:28;16.10;;;9.27;;
72085;SDS011;64750;52.134;5.424;2023-12-04T02:36:59;13.17;;;8.47;;
72085;SDS011;64750;52.134;5.424;2023-12-04T02:39:27;13.35;;;8.50;;
72085;SDS011;64750;52.134;5.424;2023-12-04T02:41:54;15.02;;;9.02;;
72085;SDS011;64750;52.134;5.424;2023-12-04T02:44:20;15.38;;;8.63;;
72085;SDS011;64750;52.134;5.424;2023-12-04T02:46:47;15.77;;;9.05;;
72085;SDS011;64750;52.134;5.424;2023-12-04T02:49:13;14.47;;;9.40;;
72085;SDS011;64750;52.134;5.424;2023-12-04T02:51:40;14.98;;;9.05;;
72085;SDS011;64750;52.134;5.424;2023-12-04T02:54:07;17.77;;;10.10;;
72085;SDS011;64750;52.134;5.424;2023-12-04T02:56:34;17.38;;;9.38;;
72085;SDS011;64750;52.134;5.424;2023-12-04T02:59:00;14.05;;;8.85;;
72085;SDS011;64750;52.134;5.424;2023-12-04T03:01:26;13.47;;;8.90;;
72085;SDS011;64750;52.134;5.424;2023-12-04T03:03:53;18.73;;;10.45;;
72085;SDS011;64750;52.134;5.424;2023-12-04T03:06:20;15.65;;;8.68;;
72085;SDS011;64750;52.134;5.424;2023-12-04T03:08:46;14.90;;;8.80;;
72085;SDS011;64750;52.134;5.424;2023-12-04T03:11:12;13.25;;;9.32;;
72085;SDS011;64750;52.134;5.424;2023-12-04T03:13:39;14.07;;;8.63;;
72085;SDS011;64750;52.134;5.424;2023-12-04T03:16:06;12.18;;;8.48;;
72085;SDS011;64750;52.134;5.424;2023-12-04T03:18:32;13.10;;;9.57;;
72085;SDS011;64750;52.134;5.424;2023-12-04T03:20:59;12.82;;;8.10;;
72085;SDS011;64750;52.134;5.424;2023-12-04T03:23:26;16.98;;;9.75;;
72085;SDS011;64750;52.134;5.424;2023-12-04T03:25:52;15.03;;;8.87;;
72085;SDS011;64750;52.134;5.424;2023-12-04T03:28:19;14.77;;;9.85;;
72085;SDS011;64750;52.134;5.424;2023-12-04T03:30:45;17.77;;;9.65;;
72085;SDS011;64750;52.134;5.424;2023-12-04T03:33:12;12.50;;;8.85;;
72085;SDS011;64750;52.134;5.424;2023-12-04T03:35:38;16.75;;;9.23;;
72085;SDS011;64750;52.134;5.424;2023-12-04T03:38:05;14.77;;;8.67;;
72085;SDS011;64750;52.134;5.424;2023-12-04T03:40:32;14.18;;;8.65;;
72085;SDS011;64750;52.134;5.424;2023-12-04T03:42:59;13.27;;;8.75;;
72085;SDS011;64750;52.134;5.424;2023-12-04T03:45:25;13.38;;;8.23;;
72085;SDS011;64750;52.134;5.424;2023-12-04T03:47:52;13.82;;;8.13;;
72085;SDS011;64750;52.134;5.424;2023-12-04T03:50:19;14.97;;;8.73;;
72085;SDS011;64750;52.134;5.424;2023-12-04T03:52:46;13.73;;;8.23;;
72085;SDS011;64750;52.134;5.424;2023-12-04T03:55:12;13.63;;;8.23;;
72085;SDS011;64750;52.134;5.424;2023-12-04T03:57:38;11.25;;;7.80;;
72085;SDS011;64750;52.134;5.424;2023-12-04T04:00:09;15.00;;;8.63;;
72085;SDS011;64750;52.134;5.424;2023-12-04T04:02:36;12.47;;;7.80;;
72085;SDS011;64750;52.134;5.424;2023-12-04T04:05:04;12.77;;;7.93;;
72085;SDS011;64750;52.134;5.424;2023-12-04T04:07:30;15.57;;;8.13;;
72085;SDS011;64750;52.134;5.424;2023-12-04T04:09:57;12.70;;;7.78;;
72085;SDS011;64750;52.134;5.424;2023-12-04T04:12:24;12.57;;;7.63;;
72085;SDS011;64750;52.134;5.424;2023-12-04T04:14:50;12.43;;;8.30;;
72085;SDS011;64750;52.134;5.424;2023-12-04T04:17:17;13.65;;;8.45;;
72085;SDS011;64750;52.134;5.424;2023-12-04T04:19:43;12.88;;;7.60;;
72085;SDS011;64750;52.134;5.424;2023-12-04T04:22:10;10.73;;;7.35;;
72085;SDS011;64750;52.134;5.424;2023-12-04T04:24:37;13.50;;;7.75;;
72085;SDS011;64750;52.134;5.424;2023-12-04T04:27:03;13.37;;;8.00;;
72085;SDS011;64750;52.134;5.424;2023-12-04T04:29:30;11.60;;;7.57;;
72085;SDS011;64750;52.134;5.424;2023-12-04T04:31:56;13.57;;;7.78;;
72085;SDS011;64750;52.134;5.424;2023-12-04T04:34:23;10.63;;;7.38;;
72085;SDS011;64750;52.134;5.424;2023-12-04T04:36:50;12.00;;;7.78;;
72085;SDS011;64750;52.134;5.424;2023-12-04T04:39:17;11.50;;;7.47;;
72085;SDS011;64750;52.134;5.424;2023-12-04T04:41:43;9.43;;;6.97;;
72085;SDS011;64750;52.134;5.424;2023-12-04T04:44:10;8.13;;;6.97;;
72085;SDS011;64750;52.134;5.424;2023-12-04T04:46:37;12.23;;;6.63;;
72085;SDS011;64750;52.134;5.424;2023-12-04T04:49:03;10.15;;;7.05;;
72085;SDS011;64750;52.134;5.424;2023-12-04T04:51:33;9.27;;;7.00;;
72085;SDS011;64750;52.134;5.424;2023-12-04T04:54:01;10.25;;;6.97;;
72085;SDS011;64750;52.134;5.424;2023-12-04T04:56:27;11.57;;;7.60;;
72085;SDS011;64750;52.134;5.424;2023-12-04T04:58:55;10.60;;;6.97;;
72085;SDS011;64750;52.134;5.424;2023-12-04T05:01:22;10.75;;;7.05;;
72085;SDS011;64750;52.134;5.424;2023-12-04T05:03:48;10.77;;;6.80;;
72085;SDS011;64750;52.134;5.424;2023-12-04T05:06:15;9.02;;;6.90;;
72085;SDS011;64750;52.134;5.424;2023-12-04T05:08:42;10.40;;;7.10;;
72085;SDS011;64750;52.134;5.424;2023-12-04T05:11:08;7.55;;;6.25;;
72085;SDS011;64750;52.134;5.424;2023-12-04T05:13:34;8.45;;;7.03;;
72085;SDS011;64750;52.134;5.424;2023-12-04T05:16:01;10.17;;;7.00;;
72085;SDS011;64750;52.134;5.424;2023-12-04T05:18:27;10.63;;;7.22;;
72085;SDS011;64750;52.134;5.424;2023-12-04T05:20:54;11.82;;;6.82;;
72085;SDS011;64750;52.134;5.424;2023-12-04T05:23:20;11.80;;;6.57;;
72085;SDS011;64750;52.134;5.424;2023-12-04T05:25:47;10.88;;;6.20;;
72085;SDS011;64750;52.134;5.424;2023-12-04T05:28:16;8.63;;;6.87;;
72085;SDS011;64750;52.134;5.424;2023-12-04T05:30:43;10.95;;;6.65;;
72085;SDS011;64750;52.134;5.424;2023-12-04T05:33:09;8.55;;;6.47;;
72085;SDS011;64750;52.134;5.424;2023-12-04T05:35:36;9.35;;;6.93;;
72085;SDS011;64750;52.134;5.424;2023-12-04T05:38:03;9.40;;;6.97;;
72085;SDS011;64750;52.134;5.424;2023-12-04T05:40:31;8.90;;;6.00;;
72085;SDS011;64750;52.134;5.424;2023-12-04T05:42:57;9.25;;;6.82;;
72085;SDS011;64750;52.134;5.424;2023-12-04T05:45:24;10.32;;;6.63;;
72085;SDS011;64750;52.134;5.424;2023-12-04T05:47:51;9.05;;;6.60;;
72085;SDS011;64750;52.134;5.424;2023-12-04T05:50:19;9.80;;;6.90;;
72085;SDS011;64750;52.134;5.424;2023-12-04T05:52:45;9.43;;;6.63;;
72085;SDS011;64750;52.134;5.424;2023-12-04T05:55:11;7.63;;;5.95;;
72085;SDS011;64750;52.134;5.424;2023-12-04T05:57:38;6.70;;;6.00;;
72085;SDS011;64750;52.134;5.424;2023-12-04T06:00:06;8.05;;;6.00;;
72085;SDS011;64750;52.134;5.424;2023-12-04T06:02:39;10.30;;;6.90;;
72085;SDS011;64750;52.134;5.424;2023-12-04T06:05:06;9.67;;;5.93;;
72085;SDS011;64750;52.134;5.424;2023-12-04T06:07:34;7.80;;;5.93;;
72085;SDS011;64750;52.134;5.424;2023-12-04T06:10:01;10.68;;;6.22;;
72085;SDS011;64750;52.134;5.424;2023-12-04T06:12:31;13.85;;;6.38;;
72085;SDS011;64750;52.134;5.424;2023-12-04T06:14:57;9.02;;;6.05;;
72085;SDS011;64750;52.134;5.424;2023-12-04T06:17:25;8.03;;;6.30;;
72085;SDS011;64750;52.134;5.424;2023-12-04T06:19:52;10.43;;;6.57;;
72085;SDS011;64750;52.134;5.424;2023-12-04T06:22:19;6.88;;;6.00;;
72085;SDS011;64750;52.134;5.424;2023-12-04T06:24:48;8.98;;;6.13;;
72085;SDS011;64750;52.134;5.424;2023-12-04T06:27:15;9.55;;;6.22;;
72085;SDS011;64750;52.134;5.424;2023-12-04T06:29:46;10.07;;;6.20;;
72085;SDS011;64750;52.134;5.424;2023-12-04T06:32:17;8.32;;;5.75;;
72085;SDS011;64750;52.134;5.424;2023-12-04T06:34:45;9.07;;;6.43;;
72085;SDS011;64750;52.134;5.424;2023-12-04T06:37:12;10.27;;;6.15;;
72085;SDS011;64750;52.134;5.424;2023-12-04T06:39:39;7.97;;;6.05;;
72085;SDS011;64750;52.134;5.424;2023-12-04T06:42:07;8.53;;;6.20;;
72085;SDS011;64750;52.134;5.424;2023-12-04T06:44:35;7.50;;;5.70;;
72085;SDS011;64750;52.134;5.424;2023-12-04T06:47:01;8.25;;;5.43;;
72085;SDS011;64750;52.134;5.424;2023-12-04T06:49:29;8.27;;;5.70;;
72085;SDS011;64750;52.134;5.424;2023-12-04T06:51:58;10.00;;;6.40;;
72085;SDS011;64750;52.134;5.424;2023-12-04T06:54:25;9.07;;;6.07;;
72085;SDS011;64750;52.134;5.424;2023-12-04T06:56:52;8.63;;;6.05;;
72085;SDS011;64750;52.134;5.424;2023-12-04T06:59:19;6.95;;;5.63;;
72085;SDS011;64750;52.134;5.424;2023-12-04T07:01:46;9.40;;;5.20;;
72085;SDS011;64750;52.134;5.424;2023-12-04T07:04:12;6.85;;;4.95;;
72085;SDS011;64750;52.134;5.424;2023-12-04T07:06:39;6.37;;;5.57;;
72085;SDS011;64750;52.134;5.424;2023-12-04T07:09:06;7.15;;;5.63;;
72085;SDS011;64750;52.134;5.424;2023-12-04T07:11:36;7.57;;;5.80;;
72085;SDS011;64750;52.134;5.424;2023-12-04T07:14:03;6.13;;;5.53;;
72085;SDS011;64750;52.134;5.424;2023-12-04T07:16:29;6.97;;;6.25;;
72085;SDS011;64750;52.134;5.424;2023-12-04T07:18:56;7.30;;;5.20;;
72085;SDS011;64750;52.134;5.424;2023-12-04T07:21:23;5.90;;;5.30;;
72085;SDS011;64750;52.134;5.424;2023-12-04T07:23:50;6.20;;;5.60;;
72085;SDS011;64750;52.134;5.424;2023-12-04T07:26:16;7.57;;;5.10;;
72085;SDS011;64750;52.134;5.424;2023-12-04T07:28:42;5.43;;;4.93;;
72085;SDS011;64750;52.134;5.424;2023-12-04T07:31:09;6.10;;;5.27;;
72085;SDS011;64750;52.134;5.424;2023-12-04T07:33:36;5.63;;;4.95;;
72085;SDS011;64750;52.134;5.424;2023-12-04T07:36:02;8.65;;;6.07;;
72085;SDS011;64750;52.134;5.424;2023-12-04T07:38:29;8.10;;;5.30;;
72085;SDS011;64750;52.134;5.424;2023-12-04T07:40:55;5.65;;;5.15;;
72085;SDS011;64750;52.134;5.424;2023-12-04T07:43:22;5.67;;;5.07;;
72085;SDS011;64750;52.134;5.424;2023-12-04T07:45:48;13.70;;;6.03;;
72085;SDS011;64750;52.134;5.424;2023-12-04T07:48:15;7.10;;;5.25;;
72085;SDS011;64750;52.134;5.424;2023-12-04T07:50:43;6.18;;;4.68;;
72085;SDS011;64750;52.134;5.424;2023-12-04T07:53:09;6.93;;;5.05;;
72085;SDS011;64750;52.134;5.424;2023-12-04T07:55:38;5.53;;;5.03;;
72085;SDS011;64750;52.134;5.424;2023-12-04T07:58:04;6.80;;;4.78;;
72085;SDS011;64750;52.134;5.424;2023-12-04T08:00:34;5.22;;;4.72;;
72085;SDS011;64750;52.134;5.424;2023-12-04T08:03:00;6.72;;;4.93;;
72085;SDS011;64750;52.134;5.424;2023-12-04T08:05:27;6.38;;;5.55;;
72085;SDS011;64750;52.134;5.424;2023-12-04T08:07:54;6.07;;;4.73;;
72085;SDS011;64750;52.134;5.424;2023-12-04T08:10:21;6.65;;;5.25;;
72085;SDS011;64750;52.134;5.424;2023-12-04T08:12:49;5.55;;;4.88;;
72085;SDS011;64750;52.134;5.424;2023-12-04T08:15:15;5.13;;;4.47;;
72085;SDS011;64750;52.134;5.424;2023-12-04T08:17:42;7.82;;;4.35;;
72085;SDS011;64750;52.134;5.424;2023-12-04T08:20:08;5.73;;;5.20;;
72085;SDS011;64750;52.134;5.424;2023-12-04T08:22:49;5.35;;;4.85;;
72085;SDS011;64750;52.134;5.424;2023-12-04T08:25:15;5.57;;;4.65;;
72085;SDS011;64750;52.134;5.424;2023-12-04T08:27:42;4.47;;;4.07;;
72085;SDS011;64750;52.134;5.424;2023-12-04T08:30:09;5.72;;;5.22;;
72085;SDS011;64750;52.134;5.424;2023-12-04T08:32:35;4.97;;;4.20;;
72085;SDS011;64750;52.134;5.424;2023-12-04T08:35:02;5.40;;;4.57;;
72085;SDS011;64750;52.134;5.424;2023-12-04T08:37:30;5.25;;;4.78;;
72085;SDS011;64750;52.134;5.424;2023-12-04T08:39:57;6.43;;;4.50;;
72085;SDS011;64750;52.134;5.424;2023-12-04T08:42:23;6.35;;;4.50;;
72085;SDS011;64750;52.134;5.424;2023-12-04T08:44:50;5.20;;;4.70;;
72085;SDS011;64750;52.134;5.424;2023-12-04T08:47:16;6.20;;;5.18;;
72085;SDS011;64750;52.134;5.424;2023-12-04T08:49:43;4.70;;;4.22;;
72085;SDS011;64750;52.134;5.424;2023-12-04T08:52:14;5.35;;;4.47;;
72085;SDS011;64750;52.134;5.424;2023-12-04T08:54:41;7.25;;;4.82;;
72085;SDS011;64750;52.134;5.424;2023-12-04T08:57:08;6.23;;;4.40;;
72085;SDS011;64750;52.134;5.424;2023-12-04T08:59:36;6.18;;;4.72;;
72085;SDS011;64750;52.134;5.424;2023-12-04T09:02:02;5.15;;;4.65;;
72085;SDS011;64750;52.134;5.424;2023-12-04T09:04:33;5.32;;;4.60;;
72085;SDS011;64750;52.134;5.424;2023-12-04T09:07:00;5.32;;;4.53;;
72085;SDS011;64750;52.134;5.424;2023-12-04T09:09:46;5.17;;;4.63;;
72085;SDS011;64750;52.134;5.424;2023-12-04T09:12:13;5.22;;;4.72;;
72085;SDS011;64750;52.134;5.424;2023-12-04T09:14:40;5.35;;;4.80;;
72085;SDS011;64750;52.134;5.424;2023-12-04T09:17:07;4.35;;;3.67;;
72085;SDS011;64750;52.134;5.424;2023-12-04T09:19:34;8.20;;;5.15;;
72085;SDS011;64750;52.134;5.424;2023-12-04T09:22:01;4.67;;;4.20;;
72085;SDS011;64750;52.134;5.424;2023-12-04T09:24:42;5.30;;;4.53;;
72085;SDS011;64750;52.134;5.424;2023-12-04T09:27:08;4.75;;;4.18;;
72085;SDS011;64750;52.134;5.424;2023-12-04T09:29:35;5.45;;;4.50;;
72085;SDS011;64750;52.134;5.424;2023-12-04T09:32:02;5.50;;;4.78;;
72085;SDS011;64750;52.134;5.424;2023-12-04T09:34:28;6.47;;;5.30;;
72085;SDS011;64750;52.134;5.424;2023-12-04T09:36:55;4.93;;;4.43;;
72085;SDS011;64750;52.134;5.424;2023-12-04T09:39:33;6.25;;;4.53;;
72085;SDS011;64750;52.134;5.424;2023-12-04T09:42:00;4.63;;;4.18;;
72085;SDS011;64750;52.134;5.424;2023-12-04T09:44:27;4.95;;;4.38;;
72085;SDS011;64750;52.134;5.424;2023-12-04T09:46:54;4.23;;;3.87;;
72085;SDS011;64750;52.134;5.424;2023-12-04T09:49:22;4.75;;;4.10;;
72085;SDS011;64750;52.134;5.424;2023-12-04T09:51:49;5.57;;;4.15;;
72085;SDS011;64750;52.134;5.424;2023-12-04T09:54:16;5.57;;;4.60;;
72085;SDS011;64750;52.134;5.424;2023-12-04T09:56:44;4.70;;;4.30;;
72085;SDS011;64750;52.134;5.424;2023-12-04T09:59:10;4.93;;;4.10;;
72085;SDS011;64750;52.134;5.424;2023-12-04T10:01:40;4.63;;;4.05;;
72085;SDS011;64750;52.134;5.424;2023-12-04T10:04:07;4.50;;;4.05;;
72085;SDS011;64750;52.134;5.424;2023-12-04T10:06:34;6.03;;;4.63;;
72085;SDS011;64750;52.134;5.424;2023-12-04T10:09:03;5.43;;;4.07;;
72085;SDS011;64750;52.134;5.424;2023-12-04T10:11:31;4.90;;;4.10;;
72085;SDS011;64750;52.134;5.424;2023-12-04T10:13:57;4.60;;;4.15;;
72085;SDS011;64750;52.134;5.424;2023-12-04T10:16:35;4.70;;;4.30;;
72085;SDS011;64750;52.134;5.424;2023-12-04T10:21:56;5.20;;;3.80;;
72085;SDS011;64750;52.134;5.424;2023-12-04T10:24:31;4.20;;;3.80;;
72085;SDS011;64750;52.134;5.424;2023-12-04T10:27:00;5.70;;;4.35;;
72085;SDS011;64750;52.134;5.424;2023-12-04T10:29:42;4.55;;;3.40;;
72085;SDS011;64750;52.134;5.424;2023-12-04T10:32:11;3.97;;;3.58;;
72085;SDS011;64750;52.134;5.424;2023-12-04T10:34:38;3.72;;;3.42;;
72085;SDS011;64750;52.134;5.424;2023-12-04T10:37:08;4.10;;;3.70;;
72085;SDS011;64750;52.134;5.424;2023-12-04T10:39:46;4.28;;;3.67;;
72085;SDS011;64750;52.134;5.424;2023-12-04T10:42:25;5.05;;;3.83;;
72085;SDS011;64750;52.134;5.424;2023-12-04T10:44:56;3.97;;;3.65;;
72085;SDS011;64750;52.134;5.424;2023-12-04T10:47:23;4.55;;;4.15;;
72085;SDS011;64750;52.134;5.424;2023-12-04T10:49:50;4.57;;;4.07;;
72085;SDS011;64750;52.134;5.424;2023-12-04T10:52:17;4.65;;;4.18;;
72085;SDS011;64750;52.134;5.424;2023-12-04T10:54:48;4.88;;;4.47;;
72085;SDS011;64750;52.134;5.424;2023-12-04T10:57:25;7.85;;;4.60;;
72085;SDS011;64750;52.134;5.424;2023-12-04T10:59:57;4.60;;;4.00;;
72085;SDS011;64750;52.134;5.424;2023-12-04T11:02:26;6.23;;;4.60;;
72085;SDS011;64750;52.134;5.424;2023-12-04T11:04:58;4.93;;;4.30;;
72085;SDS011;64750;52.134;5.424;2023-12-04T11:07:29;5.05;;;4.50;;
72085;SDS011;64750;52.134;5.424;2023-12-04T11:10:23;6.88;;;4.13;;
72085;SDS011;64750;52.134;5.424;2023-12-04T11:13:17;5.53;;;4.30;;
72085;SDS011;64750;52.134;5.424;2023-12-04T11:15:50;6.17;;;4.23;;
72085;SDS011;64750;52.134;5.424;2023-12-04T11:18:20;5.40;;;4.90;;
72085;SDS011;64750;52.134;5.424;2023-12-04T11:20:59;4.65;;;4.18;;
72085;SDS011;64750;52.134;5.424;2023-12-04T11:23:32;5.72;;;4.32;;
72085;SDS011;64750;52.134;5.424;2023-12-04T11:26:00;5.55;;;5.05;;
72085;SDS011;64750;52.134;5.424;2023-12-04T11:28:29;6.23;;;4.67;;
72085;SDS011;64750;52.134;5.424;2023-12-04T11:30:57;5.20;;;4.43;;
72085;SDS011;64750;52.134;5.424;2023-12-04T11:33:23;7.22;;;4.97;;
72085;SDS011;64750;52.134;5.424;2023-12-04T11:35:51;6.28;;;5.25;;
72085;SDS011;64750;52.134;5.424;2023-12-04T11:38:17;6.93;;;5.38;;
72085;SDS011;64750;52.134;5.424;2023-12-04T11:40:45;6.80;;;5.30;;
72085;SDS011;64750;52.134;5.424;2023-12-04T11:43:23;6.68;;;4.88;;
72085;SDS011;64750;52.134;5.424;2023-12-04T11:45:51;9.07;;;5.65;;
72085;SDS011;64750;52.134;5.424;2023-12-04T11:48:24;6.65;;;4.90;;
72085;SDS011;64750;52.134;5.424;2023-12-04T11:50:52;5.95;;;5.35;;
72085;SDS011;64750;52.134;5.424;2023-12-04T11:53:18;5.60;;;5.00;;
72085;SDS011;64750;52.134;5.424;2023-12-04T11:55:45;6.82;;;5.53;;
72085;SDS011;64750;52.134;5.424;2023-12-04T11:58:12;6.15;;;5.50;;
72085;SDS011;64750;52.134;5.424;2023-12-04T12:00:39;8.55;;;5.90;;
72085;SDS011;64750;52.134;5.424;2023-12-04T12:03:08;6.22;;;4.90;;
72085;SDS011;64750;52.134;5.424;2023-12-04T12:05:48;7.93;;;5.50;;
72085;SDS011;64750;52.134;5.424;2023-12-04T12:08:17;7.15;;;5.45;;
72085;SDS011;64750;52.134;5.424;2023-12-04T12:10:44;6.93;;;5.65;;
72085;SDS011;64750;52.134;5.424;2023-12-04T12:13:12;7.45;;;5.55;;
72085;SDS011;64750;52.134;5.424;2023-12-04T12:15:38;6.95;;;5.90;;
72085;SDS011;64750;52.134;5.424;2023-12-04T12:18:08;9.13;;;5.80;;
72085;SDS011;64750;52.134;5.424;2023-12-04T12:20:37;6.28;;;5.68;;
72085;SDS011;64750;52.134;5.424;2023-12-04T12:23:04;6.00;;;5.40;;
72085;SDS011;64750;52.134;5.424;2023-12-04T12:25:32;6.60;;;5.40;;
72085;SDS011;64750;52.134;5.424;2023-12-04T12:28:01;5.80;;;5.20;;
72085;SDS011;64750;52.134;5.424;2023-12-04T12:30:28;5.40;;;4.90;;
72085;SDS011;64750;52.134;5.424;2023-12-04T12:32:55;6.63;;;5.43;;
72085;SDS011;64750;52.134;5.424;2023-12-04T12:35:22;6.13;;;5.07;;
72085;SDS011;64750;52.134;5.424;2023-12-04T12:37:50;6.20;;;5.60;;
72085;SDS011;64750;52.134;5.424;2023-12-04T12:40:20;8.07;;;5.70;;
72085;SDS011;64750;52.134;5.424;2023-12-04T12:42:47;6.00;;;5.17;;
72085;SDS011;64750;52.134;5.424;2023-12-04T12:45:15;5.50;;;5.00;;
72085;SDS011;64750;52.134;5.424;2023-12-04T12:47:44;8.27;;;5.97;;
72085;SDS011;64750;52.134;5.424;2023-12-04T12:50:11;6.93;;;5.15;;
72085;SDS011;64750;52.134;5.424;2023-12-04T12:52:40;6.45;;;5.50;;
72085;SDS011;64750;52.134;5.424;2023-12-04T12:55:07;7.63;;;5.77;;
72085;SDS011;64750;52.134;5.424;2023-12-04T12:57:33;6.75;;;5.50;;
72085;SDS011;64750;52.134;5.424;2023-12-04T13:00:00;7.20;;;5.40;;
72085;SDS011;64750;52.134;5.424;2023-12-04T13:02:27;11.20;;;5.72;;
72085;SDS011;64750;52.134;5.424;2023-12-04T13:04:54;13.02;;;6.15;;
72085;SDS011;64750;52.134;5.424;2023-12-04T13:07:22;6.27;;;4.77;;
72085;SDS011;64750;52.134;5.424;2023-12-04T13:09:49;6.43;;;5.75;;
72085;SDS011;64750;52.134;5.424;2023-12-04T13:12:16;11.90;;;6.00;;
72085;SDS011;64750;52.134;5.424;2023-12-04T13:14:42;7.85;;;5.32;;
72085;SDS011;64750;52.134;5.424;2023-12-04T13:17:09;8.43;;;5.70;;
72085;SDS011;64750;52.134;5.424;2023-12-04T13:19:36;9.77;;;6.23;;
72085;SDS011;64750;52.134;5.424;2023-12-04T13:22:03;8.48;;;6.10;;
72085;SDS011;64750;52.134;5.424;2023-12-04T13:24:32;7.47;;;5.88;;
72085;SDS011;64750;52.134;5.424;2023-12-04T13:26:58;5.88;;;5.32;;
72085;SDS011;64750;52.134;5.424;2023-12-04T13:29:25;6.85;;;5.43;;
72085;SDS011;64750;52.134;5.424;2023-12-04T13:31:52;6.47;;;5.87;;
72085;SDS011;64750;52.134;5.424;2023-12-04T13:34:19;6.15;;;5.07;;
72085;SDS011;64750;52.134;5.424;2023-12-04T13:36:46;8.20;;;5.25;;
72085;SDS011;64750;52.134;5.424;2023-12-04T13:39:12;6.88;;;6.13;;
72085;SDS011;64750;52.134;5.424;2023-12-04T13:41:46;6.15;;;5.57;;
72085;SDS011;64750;52.134;5.424;2023-12-04T13:44:32;7.67;;;5.20;;
72085;SDS011;64750;52.134;5.424;2023-12-04T13:46:59;8.23;;;5.65;;
72085;SDS011;64750;52.134;5.424;2023-12-04T13:49:26;6.55;;;5.70;;
72085;SDS011;64750;52.134;5.424;2023-12-04T13:51:53;5.50;;;5.07;;
72085;SDS011;64750;52.134;5.424;2023-12-04T13:54:21;7.65;;;5.60;;
72085;SDS011;64750;52.134;5.424;2023-12-04T13:56:54;5.63;;;5.03;;
72085;SDS011;64750;52.134;5.424;2023-12-04T13:59:22;6.00;;;5.22;;
72085;SDS011;64750;52.134;5.424;2023-12-04T14:01:50;6.88;;;5.78;;
72085;SDS011;64750;52.134;5.424;2023-12-04T14:04:18;7.00;;;5.85;;
72085;SDS011;64750;52.134;5.424;2023-12-04T14:06:45;6.55;;;5.88;;
72085;SDS011;64750;52.134;5.424;2023-12-04T14:09:12;8.13;;;5.77;;
72085;SDS011;64750;52.134;5.424;2023-12-04T14:11:43;6.28;;;5.68;;
72085;SDS011;64750;52.134;5.424;2023-12-04T14:14:14;7.57;;;5.45;;
72085;SDS011;64750;52.134;5.424;2023-12-04T14:16:40;6.75;;;5.60;;
72085;SDS011;64750;52.134;5.424;2023-12-04T14:19:08;6.07;;;5.45;;
72085;SDS011;64750;52.134;5.424;2023-12-04T14:21:34;6.03;;;5.20;;
72085;SDS011;64750;52.134;5.424;2023-12-04T14:24:01;7.97;;;5.55;;
72085;SDS011;64750;52.134;5.424;2023-12-04T14:26:27;7.68;;;5.70;;
72085;SDS011;64750;52.134;5.424;2023-12-04T14:28:54;6.63;;;5.20;;
72085;SDS011;64750;52.134;5.424;2023-12-04T14:31:23;6.22;;;5.60;;
72085;SDS011;64750;52.134;5.424;2023-12-04T14:33:49;7.57;;;5.40;;
72085;SDS011;64750;52.134;5.424;2023-12-04T14:36:16;8.50;;;5.60;;
72085;SDS011;64750;52.134;5.424;2023-12-04T14:38:42;6.68;;;5.68;;
72085;SDS011;64750;52.134;5.424;2023-12-04T14:41:09;7.72;;;5.60;;
72085;SDS011;64750;52.134;5.424;2023-12-04T14:43:36;6.32;;;5.28;;
72085;SDS011;64750;52.134;5.424;2023-12-04T14:46:04;6.03;;;5.43;;
72085;SDS011;64750;52.134;5.424;2023-12-04T14:48:31;6.80;;;5.45;;
72085;SDS011;64750;52.134;5.424;2023-12-04T14:50:58;8.95;;;5.55;;